• Join FlightAware (Why Join?)
  • Login
  • US Flag 
07:34AM EDT


 

Airport Tracker/Info


-or-


 

Live Flight TrackerFlight Track Log ✈ N107US ✈ 30-Apr-2013 ✈ KORD - KPHL

Flight Track Log - Related Links

Times and Time Zones

All times are in EDT time to prevent confusion due to time zone crossing. See the N107US flight status page for this flight to view local times or setup timezone preferences in your user account.

Time Position Orientation Groundspeed Altitude Reporting Facility
EDT Latitude Longitude Course Direction KTS MPH feet Rate Location/Type
05:29PM 41.9167 -87.8833 90° East 196 226 2,600  Level Chicago TRACON
05:30PM 41.9333 -87.7833 77° East 250 288 5,000 1,380 Climbing Chicago TRACON
05:31PM 41.9551 -87.4221 97° East  Level FlightAware Approximate
05:31PM 41.9333 -87.6667 90° East 292 336 5,600  Level Chicago TRACON
05:32PM 41.9427 -87.2634 95° East  Level FlightAware Approximate
05:32PM 41.9333 -87.5667 90° East 308 354 8,000  Level Chicago TRACON
05:33PM 41.9333 -87.1045 90° East  Level FlightAware Approximate
05:34PM 41.9333 -86.9450 90° East  Level FlightAware Approximate
05:34PM 41.9383 -87.3681 88° East 323 372 12,100  Level Chicago Center
05:35PM 41.9419 -87.2106 88° East 358 412 13,800 1,800 Climbing Chicago Center
05:36PM 41.9442 -87.0628 89° East 393 452 15,900 1,980 Climbing Chicago Center
05:37PM 41.9461 -86.9122 89° East 403 464 18,000 1,980 Climbing Chicago Center
05:38PM 41.9497 -86.7619 88° East 406 467 20,000 1,920 Climbing Chicago Center
05:39PM 41.9519 -86.5839 89° East 417 480 22,000 1,680 Climbing Chicago Center
05:40PM 41.9531 -86.4244 89° East 425 489 23,500 1,320 Climbing Chicago Center
05:41PM 41.9550 -86.2628 89° East 432 497 24,800 1,140 Climbing Chicago Center
05:42PM 41.9450 -86.0958 95° East 445 512 25,900 1,020 Climbing Chicago Center
05:43PM 41.9289 -85.9253 97° East 459 528 27,000 1,020 Climbing Chicago Center
05:44PM 41.9119 -85.7514 97° East 466 536 28,100 1,080 Climbing Chicago Center
05:45PM 41.8919 -85.5369 97° East 477 549 29,300 1,080 Climbing Chicago Center
05:46PM 41.8744 -85.3569 97° East 480 552 30,400 1,260 Climbing Chicago Center
05:47PM 41.8567 -85.1794 98° East 473 544 32,000 1,200 Climbing Chicago Center
05:48PM 41.8403 -85.0050 97° East 470 541 32,900 960 Climbing Chicago Center
05:49PM 41.8219 -84.8303 98° East 473 544 34,000 1,020 Climbing Chicago Center
05:50PM 41.8061 -84.6617 97° East 462 532 35,100 840 Climbing Cleveland Center
05:51PM 41.7869 -84.4933 99° East 462 532 35,800 600 Climbing Cleveland Center
05:52PM 41.7781 -84.3231 94° East 462 532 36,400 600 Climbing Cleveland Center
05:53PM 41.7733 -84.1417 92° East 457 526 37,000 300 Climbing Cleveland Center
05:54PM 41.7725 -83.9661 90° East 457 526 37,000  Level Cleveland Center
05:55PM 41.7711 -83.7906 91° East 462 532 37,000  Level Cleveland Center
05:56PM 41.7675 -83.6206 92° East 462 532 37,000  Level Cleveland Center
05:57PM 41.7572 -83.4503 95° East 462 532 37,000  Level Cleveland Center
05:58PM 41.7425 -83.2856 97° East 457 526 37,000  Level Cleveland Center
05:59PM 41.7256 -83.1178 98° East 457 526 37,000  Level Cleveland Center
06:00PM 41.7103 -82.9531 97° East 451 519 37,000  Level Cleveland Center
06:01PM 41.6928 -82.7856 98° East 451 519 37,000 -60 Level Cleveland Center
06:02PM 41.6750 -82.6181 98° East 451 519 36,900 -480 Descending Cleveland Center
06:03PM 41.6592 -82.4508 97° East 451 519 36,100 -840 Descending Cleveland Center
06:04PM 41.6447 -82.3031 97° East 451 519 35,300 -600 Descending Cleveland Center
06:05PM 41.6242 -82.1331 99° East 451 519 35,000 -180 Descending Cleveland Center
06:06PM 41.6078 -81.9633 97° East 451 519 35,000  Level Cleveland Center
06:07PM 41.5908 -81.7936 98° East 456 525 35,000  Level Cleveland Center
06:08PM 41.5697 -81.6072 99° East 456 525 35,000  Level Cleveland Center
06:09PM 41.5503 -81.4378 99° East 465 535 35,000  Level Cleveland Center
06:10PM 41.5264 -81.2708 101° East 465 535 35,000  Level Cleveland Center
06:11PM 41.4731 -81.1153 115° Southeast 459 528 35,000  Level Cleveland Center
06:12PM 41.3861 -80.9817 131° Southeast 463 533 35,000  Level Cleveland Center
06:13PM 41.2967 -80.8594 134° Southeast 463 533 35,000  Level Cleveland Center
06:14PM 41.2156 -80.7458 133° Southeast 463 533 35,000  Level Cleveland Center
06:15PM 41.1158 -80.6106 134° Southeast 463 533 35,000  Level Cleveland Center
06:16PM 41.0386 -80.4978 132° Southeast 458 527 35,000  Level Cleveland Center
06:17PM 40.9467 -80.3742 135° Southeast 458 527 35,000  Level Cleveland Center
06:18PM 40.8567 -80.2508 134° Southeast 458 527 35,000  Level Cleveland Center
06:19PM 40.7875 -80.1114 123° Southeast 458 527 35,000  Level Cleveland Center
06:20PM 40.7347 -79.9611 115° Southeast 452 520 35,000  Level Cleveland Center
06:21PM 40.6794 -79.8111 116° Southeast 452 520 35,000  Level Cleveland Center
06:22PM 40.6242 -79.6586 115° Southeast 452 520 35,000  Level Cleveland Center
06:23PM 40.5686 -79.5089 116° Southeast 452 520 35,000  Level Cleveland Center
06:24PM 40.5294 -79.3511 108° East 452 520 35,000  Level Cleveland Center
06:25PM 40.5006 -79.1933 103° East 446 513 35,000  Level Cleveland Center
06:26PM 40.4778 -79.0328 101° East 441 507 35,000  Level Cleveland Center
06:27PM 40.4525 -78.8694 101° East 447 514 35,000 -420 Level Cleveland Center
06:28PM 40.4292 -78.7092 101° East 447 514 34,200 -1,020 Descending Cleveland Center
06:29PM 40.4011 -78.5328 102° East 452 520 33,000 -1,560 Descending Cleveland Center
06:31PM 40.3569 -78.2375 101° East 456 525 29,700 -2,220 Descending New York Center
06:32PM 40.3297 -78.0711 102° East 461 531 26,600 -2,340 Descending New York Center
06:33PM 40.3106 -77.9056 99° East 461 531 25,000 -960 Descending New York Center
06:34PM 40.3103 -77.7342 90° East 454 522 24,700 -1,020 Descending New York Center
06:35PM 40.3078 -77.5650 91° East 464 534 23,000 -960 Descending New York Center
06:36PM 40.3050 -77.3933 91° East 469 540 22,800 -540 Descending New York Center
06:37PM 40.2825 -77.2358 101° East 457 526 22,000 -900 Descending New York Center
06:38PM 40.2642 -77.0736 98° East 444 511 21,000 -1,020 Descending New York Center
06:39PM 40.2431 -76.9194 100° East 438 504 20,000 -1,080 Descending New York Center
06:40PM 40.2206 -76.7489 100° East 432 497 18,900 -1,020 Descending New York Center
06:41PM 40.2008 -76.6003 100° East 432 497 18,000 -1,260 Descending New York Center
06:42PM 40.1842 -76.4711 100° East 417 480 16,400 -1,800 Descending New York Center
06:43PM 40.1639 -76.3283 100° East 403 464 14,500 -2,100 Descending New York Center
06:44PM 40.1417 -76.1772 101° East 392 451 12,200 -1,860 Descending New York Center
06:45PM 40.1250 -76.0428 99° East 381 438 10,900 -1,020 Descending New York Center
06:46PM 40.1106 -75.9467 101° East 326 375 10,200 -900 Descending New York Center
06:47PM 40.0944 -75.8369 101° East 288 331 9,200 -1,080 Descending New York Center
06:48PM 40.0814 -75.7519 101° East 268 308 8,100 -600 Descending New York Center
06:49PM 40.1222 -75.6733 56° Northeast 223 257 8,000 -540 Descending New York Center
06:50PM 40.1617 -75.6217 45° Northeast 223 257 7,100 -1,020 Descending New York Center
06:51PM 40.1736 -75.5356 80° East 212 244 6,100 -600 Descending New York Center
06:52PM 40.1381 -75.4872 134° Southeast 204 235 6,000 -60 Descending New York Center
06:53PM 40.0817 -75.4372 146° Southeast 215 247 6,000  Level New York Center
06:54PM 40.0306 -75.4119 159° South 220 253 6,000  Level New York Center
06:55PM 39.9647 -75.3914 167° South 225 259 6,000  Level New York Center
06:56PM 39.9222 -75.4131 201° Southwest 175 201 6,000 -300 Level New York Center
06:57PM 39.9106 -75.4933 259° West 171 197 5,400 -540 Descending New York Center
06:58PM 39.8933 -75.5600 251° West 205 236 5,000 -480 Descending New York Center
07:01PM 39.8167 -75.6500 222° Southwest 185 213 4,000 -360 Descending Philadelphia TRACON
07:02PM 39.8000 -75.6000 113° Southeast 170 196 4,000  Level Philadelphia TRACON
07:03PM 39.8000 -75.5500 90° East 169 194 4,000 -360 Level Philadelphia TRACON
07:04PM 39.8167 -75.4833 72° East 169 194 3,300 -840 Descending Philadelphia TRACON
07:05PM 39.8333 -75.4333 67° East 162 186 2,400 -960 Descending Philadelphia TRACON